createdAt,value
2023-11-30T00:01:29.678Z,-5.88
2023-11-30T00:03:57.676Z,-5.84
2023-11-30T00:06:26.186Z,-5.79
2023-11-30T00:08:54.740Z,-5.74
2023-11-30T00:11:22.562Z,-5.69
2023-11-30T00:13:50.371Z,-5.63
2023-11-30T00:16:18.198Z,-5.65
2023-11-30T00:18:45.937Z,-5.66
2023-11-30T00:21:13.937Z,-5.64
2023-11-30T00:23:41.623Z,-5.66
2023-11-30T00:26:09.472Z,-5.70
2023-11-30T00:28:37.383Z,-5.75
2023-11-30T00:31:05.690Z,-5.77
2023-11-30T00:33:33.466Z,-5.80
2023-11-30T00:36:01.446Z,-5.81
2023-11-30T00:38:29.518Z,-5.83
2023-11-30T00:40:57.247Z,-5.83
2023-11-30T00:43:24.999Z,-5.81
2023-11-30T00:46:03.229Z,-5.76
2023-11-30T00:48:38.242Z,-5.69
2023-11-30T00:51:10.050Z,-5.62
2023-11-30T00:53:39.237Z,-5.54
2023-11-30T00:56:07.793Z,-5.46
2023-11-30T00:58:35.820Z,-5.38
2023-11-30T01:01:03.737Z,-5.28
2023-11-30T01:03:31.671Z,-5.19
2023-11-30T01:05:59.590Z,-5.10
2023-11-30T01:08:27.290Z,-5.05
2023-11-30T01:10:55.045Z,-5.04
2023-11-30T01:13:22.805Z,-5.01
2023-11-30T01:15:50.892Z,-5.00
2023-11-30T01:18:19.130Z,-5.00
2023-11-30T01:20:46.995Z,-5.01
2023-11-30T01:23:14.819Z,-5.03
2023-11-30T01:25:42.624Z,-5.06
2023-11-30T01:28:10.354Z,-5.10
2023-11-30T01:30:38.382Z,-5.12
2023-11-30T01:33:06.221Z,-5.12
2023-11-30T01:35:33.967Z,-5.13
2023-11-30T01:38:01.701Z,-5.16
2023-11-30T01:40:29.493Z,-5.16
2023-11-30T01:42:57.299Z,-5.15
2023-11-30T01:45:26.297Z,-5.12
2023-11-30T01:47:54.178Z,-5.07
2023-11-30T01:50:23.576Z,-5.03
2023-11-30T01:52:51.534Z,-4.96
2023-11-30T01:55:19.695Z,-4.93
2023-11-30T01:57:47.685Z,-4.92
2023-11-30T02:00:16.930Z,-4.94
2023-11-30T02:02:45.441Z,-4.96
2023-11-30T02:05:13.385Z,-4.98
2023-11-30T02:07:41.150Z,-4.99
2023-11-30T02:10:09.494Z,-4.99
2023-11-30T02:12:37.495Z,-5.01
2023-11-30T02:15:05.849Z,-5.01
2023-11-30T02:17:33.690Z,-5.00
2023-11-30T02:20:01.563Z,-4.98
2023-11-30T02:22:29.459Z,-4.92
2023-11-30T02:24:57.152Z,-4.84
2023-11-30T02:27:24.970Z,-4.77
2023-11-30T02:29:53.029Z,-4.72
2023-11-30T02:32:21.730Z,-4.66
2023-11-30T02:34:49.441Z,-4.62
2023-11-30T02:37:17.236Z,-4.59
2023-11-30T02:39:45.015Z,-4.58
2023-11-30T02:42:13.353Z,-4.55
2023-11-30T02:44:41.098Z,-4.55
2023-11-30T02:47:08.837Z,-4.56
2023-11-30T02:49:36.828Z,-4.53
2023-11-30T02:52:05.448Z,-4.51
2023-11-30T02:54:33.335Z,-4.49
2023-11-30T02:57:02.384Z,-4.45
2023-11-30T02:59:32.016Z,-4.36
2023-11-30T03:02:00.004Z,-4.27
2023-11-30T03:04:27.927Z,-4.16
2023-11-30T03:06:55.749Z,-4.10
2023-11-30T03:09:23.523Z,-4.03
2023-11-30T03:11:52.395Z,-3.94
2023-11-30T03:14:20.989Z,-3.87
2023-11-30T03:16:48.789Z,-3.90
2023-11-30T03:19:17.599Z,-3.93
2023-11-30T03:21:45.653Z,-3.95
2023-11-30T03:24:14.232Z,-3.96
2023-11-30T03:26:42.822Z,-3.95
2023-11-30T03:29:11.064Z,-3.95
2023-11-30T03:31:40.816Z,-3.94
2023-11-30T03:34:09.110Z,-3.93
2023-11-30T03:36:37.005Z,-3.92
2023-11-30T03:39:05.654Z,-3.86
2023-11-30T03:41:33.433Z,-3.79
2023-11-30T03:44:02.777Z,-3.71
2023-11-30T03:46:31.097Z,-3.66
2023-11-30T03:48:59.079Z,-3.62
2023-11-30T03:51:26.858Z,-3.61
2023-11-30T03:53:54.715Z,-3.60
2023-11-30T03:56:22.608Z,-3.55
2023-11-30T03:58:52.387Z,-3.54
2023-11-30T04:01:24.228Z,-3.52
2023-11-30T04:03:52.121Z,-3.49
2023-11-30T04:06:21.455Z,-3.46
2023-11-30T04:08:53.254Z,-3.42
2023-11-30T04:11:21.494Z,-3.36
2023-11-30T04:13:49.361Z,-3.27
2023-11-30T04:16:18.238Z,-3.16
2023-11-30T04:18:46.155Z,-3.02
2023-11-30T04:21:14.761Z,-2.90
2023-11-30T04:23:42.562Z,-2.84
2023-11-30T04:26:11.092Z,-2.82
2023-11-30T04:28:39.026Z,-2.80
2023-11-30T04:31:08.401Z,-2.77
2023-11-30T04:33:36.219Z,-2.76
2023-11-30T04:36:04.686Z,-2.80
2023-11-30T04:38:32.719Z,-2.84
2023-11-30T04:41:00.755Z,-2.85
2023-11-30T04:43:28.566Z,-2.87
2023-11-30T04:45:56.383Z,-2.86
2023-11-30T04:48:24.139Z,-2.84
2023-11-30T04:50:52.512Z,-2.84
2023-11-30T04:53:20.400Z,-2.84
2023-11-30T04:55:48.157Z,-2.78
2023-11-30T04:58:15.955Z,-2.69
2023-11-30T05:00:43.704Z,-2.63
2023-11-30T05:03:13.098Z,-2.59
2023-11-30T05:05:41.216Z,-2.53
2023-11-30T05:08:09.354Z,-2.50
2023-11-30T05:10:37.430Z,-2.45
2023-11-30T05:13:05.162Z,-2.44
2023-11-30T05:15:32.931Z,-2.48
2023-11-30T05:18:00.753Z,-2.56
2023-11-30T05:20:29.766Z,-2.58
2023-11-30T05:22:57.469Z,-2.54
2023-11-30T05:25:25.522Z,-2.46
2023-11-30T05:27:53.294Z,-2.37
2023-11-30T05:30:21.621Z,-2.28
2023-11-30T05:32:50.052Z,-2.21
2023-11-30T05:35:18.021Z,-2.14
2023-11-30T05:37:47.236Z,-2.09
2023-11-30T05:40:17.244Z,-2.03
2023-11-30T05:42:44.958Z,-1.98
2023-11-30T05:45:12.801Z,-1.97
2023-11-30T05:47:40.683Z,-1.94
2023-11-30T05:50:09.030Z,-1.93
2023-11-30T05:52:37.086Z,-1.92
2023-11-30T05:55:09.001Z,-1.89
2023-11-30T05:57:38.319Z,-1.83
2023-11-30T06:00:09.677Z,-1.76
2023-11-30T06:02:40.765Z,-1.69
2023-11-30T06:05:08.982Z,-1.63
2023-11-30T06:07:38.680Z,-1.58
2023-11-30T06:10:11.140Z,-1.52
2023-11-30T06:12:40.616Z,-1.51
2023-11-30T06:15:10.839Z,-1.51
2023-11-30T06:17:38.998Z,-1.52
2023-11-30T06:20:11.762Z,-1.54
2023-11-30T06:22:41.242Z,-1.57
2023-11-30T06:25:10.247Z,-1.56
2023-11-30T06:27:38.358Z,-1.54
2023-11-30T06:30:07.115Z,-1.52
2023-11-30T06:32:35.103Z,-1.51
2023-11-30T06:35:03.535Z,-1.48
2023-11-30T06:37:31.439Z,-1.46
2023-11-30T06:39:59.278Z,-1.43
2023-11-30T06:42:27.059Z,-1.44
2023-11-30T06:44:54.966Z,-1.44
2023-11-30T06:47:22.714Z,-1.44
2023-11-30T06:49:51.329Z,-1.43
2023-11-30T06:52:19.419Z,-1.44
2023-11-30T06:54:47.221Z,-1.43
2023-11-30T06:57:15.229Z,-1.41
2023-11-30T06:59:44.470Z,-1.37
2023-11-30T07:02:12.470Z,-1.32
2023-11-30T07:04:40.563Z,-1.27
2023-11-30T07:07:10.090Z,-1.20
2023-11-30T07:09:40.808Z,-1.15
2023-11-30T07:12:09.342Z,-1.11
2023-11-30T07:14:50.471Z,-1.06
2023-11-30T07:17:24.587Z,-1.02
2023-11-30T07:19:53.276Z,-1.00
2023-11-30T07:22:23.398Z,-0.99
2023-11-30T07:24:52.079Z,-0.98
2023-11-30T07:27:20.504Z,-0.97
2023-11-30T07:29:48.541Z,-0.95
2023-11-30T07:32:16.929Z,-0.93
2023-11-30T07:34:45.799Z,-0.91
2023-11-30T07:37:17.113Z,-0.87
2023-11-30T07:39:45.466Z,-0.82
2023-11-30T07:42:25.881Z,-0.78
2023-11-30T07:45:03.220Z,-0.71
2023-11-30T07:47:31.978Z,-0.65
2023-11-30T07:50:00.546Z,-0.60
2023-11-30T07:52:28.481Z,-0.54
2023-11-30T07:54:56.257Z,-0.51
2023-11-30T07:57:25.029Z,-0.50
2023-11-30T07:59:52.941Z,-0.48
2023-11-30T08:02:20.723Z,-0.43
2023-11-30T08:04:48.540Z,-0.36
2023-11-30T08:07:16.354Z,-0.31
2023-11-30T08:09:44.122Z,-0.26
2023-11-30T08:12:12.007Z,-0.22
2023-11-30T08:14:40.053Z,-0.17
2023-11-30T08:17:07.977Z,-0.13
2023-11-30T08:19:35.822Z,-0.08
2023-11-30T08:22:03.666Z,-0.05
2023-11-30T08:24:31.538Z,0.00
2023-11-30T08:27:00.748Z,0.05
2023-11-30T08:29:28.530Z,0.09
2023-11-30T08:31:56.907Z,0.11
2023-11-30T08:34:24.790Z,0.12
2023-11-30T08:36:52.563Z,0.11
2023-11-30T08:39:24.707Z,0.11
2023-11-30T08:41:54.480Z,0.19
2023-11-30T08:44:24.070Z,0.31
2023-11-30T08:46:52.131Z,0.51
2023-11-30T08:49:20.139Z,0.72
2023-11-30T08:51:48.019Z,0.74
2023-11-30T08:54:15.861Z,0.72
2023-11-30T08:56:43.703Z,0.74
2023-11-30T08:59:11.590Z,0.86
2023-11-30T09:01:39.638Z,1.02
2023-11-30T09:04:09.893Z,1.37
2023-11-30T09:06:37.996Z,1.75
2023-11-30T09:09:05.886Z,2.00
2023-11-30T09:11:35.221Z,2.31
2023-11-30T09:14:03.456Z,2.65
2023-11-30T09:16:31.347Z,2.87
2023-11-30T09:18:59.150Z,2.87
2023-11-30T09:21:28.150Z,2.79
2023-11-30T09:23:57.178Z,2.69
2023-11-30T09:26:25.099Z,2.60
2023-11-30T09:28:52.997Z,2.45
2023-11-30T09:31:21.422Z,2.25
2023-11-30T09:50:03.995Z,1.97
2023-11-30T09:52:32.973Z,1.86
2023-11-30T09:55:00.836Z,1.79
2023-11-30T09:57:28.607Z,1.70
2023-11-30T09:59:56.468Z,1.69
2023-11-30T10:02:25.368Z,1.87
2023-11-30T10:04:53.254Z,2.30
2023-11-30T10:07:22.126Z,2.50
2023-11-30T10:09:50.033Z,2.72
2023-11-30T10:12:21.232Z,2.81
2023-11-30T10:14:49.137Z,3.09
2023-11-30T10:17:17.437Z,3.28
2023-11-30T10:19:45.347Z,3.22
2023-11-30T10:22:13.727Z,3.20
2023-11-30T10:24:41.504Z,3.10
2023-11-30T10:27:11.604Z,3.02
2023-11-30T10:29:43.128Z,3.09
2023-11-30T10:32:14.287Z,3.22
2023-11-30T10:34:47.955Z,3.23
2023-11-30T10:37:21.098Z,3.02
2023-11-30T10:40:01.699Z,2.81
2023-11-30T10:42:33.559Z,2.65
2023-11-30T10:45:04.571Z,2.52
2023-11-30T10:47:33.078Z,2.46
2023-11-30T10:50:01.678Z,2.41
2023-11-30T10:52:30.076Z,2.32
2023-11-30T10:55:05.159Z,2.26
2023-11-30T10:57:33.022Z,2.25
2023-11-30T11:00:01.013Z,2.21
2023-11-30T11:02:39.510Z,2.31
2023-11-30T11:05:18.271Z,2.61
2023-11-30T11:07:50.710Z,3.05
2023-11-30T11:10:29.685Z,3.48
2023-11-30T11:13:01.250Z,3.75
2023-11-30T11:15:30.220Z,3.96
2023-11-30T11:18:07.039Z,4.13
2023-11-30T11:20:38.142Z,4.30
2023-11-30T11:23:09.817Z,4.36
2023-11-30T11:25:42.220Z,4.34
2023-11-30T11:28:11.637Z,4.30
2023-11-30T11:30:44.874Z,4.32
2023-11-30T11:33:15.833Z,4.19
2023-11-30T11:35:43.743Z,3.94
2023-11-30T11:38:11.811Z,3.71
2023-11-30T11:40:40.889Z,3.51
2023-11-30T11:43:09.438Z,3.36
2023-11-30T11:45:42.306Z,3.22
2023-11-30T11:48:12.062Z,3.08
2023-11-30T11:50:39.977Z,2.89
2023-11-30T11:53:07.884Z,2.71
2023-11-30T11:55:36.203Z,2.57
2023-11-30T11:58:03.990Z,2.45
2023-11-30T12:00:31.870Z,2.33
2023-11-30T12:03:07.527Z,2.24
2023-11-30T12:05:35.566Z,2.24
2023-11-30T12:08:04.374Z,2.23
2023-11-30T12:10:48.168Z,2.20
2023-11-30T12:13:16.300Z,2.14
2023-11-30T12:15:45.996Z,2.06
2023-11-30T12:18:14.982Z,2.02
2023-11-30T12:20:44.477Z,2.00
2023-11-30T12:23:13.853Z,1.99
2023-11-30T12:25:41.720Z,1.96
2023-11-30T12:28:09.541Z,1.93
2023-11-30T12:30:37.417Z,1.90
2023-11-30T12:33:05.243Z,1.94
2023-11-30T12:35:35.593Z,1.93
2023-11-30T12:38:03.972Z,1.90
2023-11-30T12:40:31.734Z,1.88
2023-11-30T12:42:59.969Z,1.89
2023-11-30T12:45:28.791Z,1.88
2023-11-30T12:47:57.075Z,1.88
2023-11-30T12:50:25.057Z,1.90
2023-11-30T12:52:53.071Z,1.92
2023-11-30T12:55:21.087Z,1.93
2023-11-30T12:57:48.967Z,1.97
2023-11-30T13:00:21.893Z,1.91
2023-11-30T13:02:49.971Z,1.82
2023-11-30T13:05:18.043Z,1.82
2023-11-30T13:07:46.535Z,1.79
2023-11-30T13:10:14.473Z,1.79
2023-11-30T13:12:43.093Z,1.79
2023-11-30T13:15:12.928Z,1.78
2023-11-30T13:17:41.490Z,1.74
2023-11-30T13:20:14.471Z,1.68
2023-11-30T13:22:45.327Z,1.65
2023-11-30T13:25:15.243Z,1.61
2023-11-30T13:27:47.661Z,1.57
2023-11-30T13:30:18.595Z,1.54
2023-11-30T13:32:47.748Z,1.49
2023-11-30T13:35:16.035Z,1.46
2023-11-30T13:37:44.189Z,1.45
2023-11-30T13:40:12.441Z,1.45
2023-11-30T13:42:40.448Z,1.45
2023-11-30T13:45:08.778Z,1.45
2023-11-30T13:47:36.673Z,1.45
2023-11-30T13:50:08.303Z,1.44
2023-11-30T13:52:40.315Z,1.42
2023-11-30T13:55:08.145Z,1.40
2023-11-30T13:57:37.021Z,1.39
2023-11-30T14:00:06.875Z,1.39
2023-11-30T14:02:36.860Z,1.39
2023-11-30T14:05:06.235Z,1.35
2023-11-30T14:07:34.901Z,1.34
2023-11-30T14:10:03.302Z,1.30
2023-11-30T14:12:31.162Z,1.25
2023-11-30T14:14:59.023Z,1.18
2023-11-30T14:17:26.886Z,1.11
2023-11-30T14:19:54.665Z,1.02
2023-11-30T14:22:22.807Z,0.94
2023-11-30T14:24:50.724Z,0.86
2023-11-30T14:27:18.993Z,0.80
2023-11-30T14:29:46.739Z,0.71
2023-11-30T14:32:14.483Z,0.59
2023-11-30T14:34:42.321Z,0.49
2023-11-30T14:37:10.039Z,0.43
2023-11-30T14:39:37.952Z,0.36
2023-11-30T14:42:06.921Z,0.25
2023-11-30T14:44:36.168Z,0.09
2023-11-30T14:47:11.035Z,-0.04
2023-11-30T14:49:39.227Z,-0.11
2023-11-30T14:52:07.616Z,-0.16
2023-11-30T14:54:35.935Z,-0.23
2023-11-30T14:57:07.454Z,-0.31
2023-11-30T14:59:35.761Z,-0.34
2023-11-30T15:02:04.391Z,-0.33
2023-11-30T15:04:32.773Z,-0.31
2023-11-30T15:07:01.316Z,-0.28
2023-11-30T15:09:29.676Z,-0.29
2023-11-30T15:11:57.655Z,-0.28
2023-11-30T15:14:25.567Z,-0.26
2023-11-30T15:16:55.670Z,-0.23
2023-11-30T15:19:23.520Z,-0.20
2023-11-30T15:21:51.536Z,-0.16
2023-11-30T15:24:19.615Z,-0.15
2023-11-30T15:26:48.769Z,-0.13
2023-11-30T15:29:17.806Z,-0.15
2023-11-30T15:31:45.681Z,-0.19
2023-11-30T15:34:13.614Z,-0.20
2023-11-30T15:36:43.079Z,-0.19
2023-11-30T15:39:18.177Z,-0.20
2023-11-30T15:41:51.258Z,-0.18
2023-11-30T15:44:19.144Z,-0.17
2023-11-30T15:46:47.414Z,-0.15
2023-11-30T15:49:15.831Z,-0.08
2023-11-30T15:51:44.093Z,-0.05
2023-11-30T15:54:11.966Z,-0.06
2023-11-30T15:56:39.785Z,-0.03
2023-11-30T15:59:07.600Z,-0.01
2023-11-30T16:01:35.473Z,0.00
2023-11-30T16:04:04.399Z,-0.01
2023-11-30T16:06:34.712Z,-0.07
2023-11-30T16:09:03.958Z,-0.17
2023-11-30T16:11:31.845Z,-0.25
2023-11-30T16:13:59.848Z,-0.31
2023-11-30T16:16:28.931Z,-0.38
2023-11-30T16:18:58.241Z,-0.43
2023-11-30T16:21:28.541Z,-0.45
2023-11-30T16:23:56.711Z,-0.45
2023-11-30T16:26:27.594Z,-0.46
2023-11-30T16:28:55.446Z,-0.44
2023-11-30T16:31:23.270Z,-0.42
2023-11-30T16:33:52.733Z,-0.42
2023-11-30T16:36:21.111Z,-0.41
2023-11-30T16:38:49.038Z,-0.40
2023-11-30T16:41:18.268Z,-0.38
2023-11-30T16:43:46.377Z,-0.37
2023-11-30T16:46:14.345Z,-0.35
2023-11-30T16:48:45.166Z,-0.32
2023-11-30T16:51:13.317Z,-0.30
2023-11-30T16:53:41.151Z,-0.28
2023-11-30T16:56:09.947Z,-0.24
2023-11-30T16:58:37.738Z,-0.19
2023-11-30T17:01:08.466Z,-0.16
2023-11-30T17:03:36.343Z,-0.13
2023-11-30T17:06:04.851Z,-0.13
2023-11-30T17:08:32.799Z,-0.14
2023-11-30T17:11:00.837Z,-0.15
2023-11-30T17:13:28.714Z,-0.16
2023-11-30T17:15:57.279Z,-0.18
2023-11-30T17:18:25.464Z,-0.19
2023-11-30T17:20:53.384Z,-0.20
2023-11-30T17:23:21.266Z,-0.21
2023-11-30T17:25:49.123Z,-0.24
2023-11-30T17:28:16.970Z,-0.25
2023-11-30T17:30:44.860Z,-0.24
2023-11-30T17:33:13.298Z,-0.22
2023-11-30T17:35:41.815Z,-0.19
2023-11-30T17:38:09.734Z,-0.18
2023-11-30T17:40:37.573Z,-0.14
2023-11-30T17:43:05.447Z,-0.07
2023-11-30T17:45:33.268Z,0.01
2023-11-30T17:48:04.793Z,0.09
2023-11-30T17:50:33.149Z,0.18
2023-11-30T17:53:02.202Z,0.25
2023-11-30T17:55:31.960Z,0.29
2023-11-30T17:57:59.762Z,0.33
2023-11-30T18:00:30.230Z,0.38
2023-11-30T18:02:59.522Z,0.41
2023-11-30T18:05:27.449Z,0.40
2023-11-30T18:07:55.325Z,0.38
2023-11-30T18:10:23.163Z,0.36
2023-11-30T18:12:51.068Z,0.34
2023-11-30T18:15:18.972Z,0.34
2023-11-30T18:17:46.990Z,0.37
2023-11-30T18:20:14.900Z,0.45
2023-11-30T18:25:36.270Z,0.43
2023-11-30T18:28:04.418Z,0.39
2023-11-30T18:30:32.175Z,0.36
2023-11-30T18:33:00.016Z,0.32
2023-11-30T18:35:27.738Z,0.27
2023-11-30T18:37:55.617Z,0.25
2023-11-30T18:40:23.513Z,0.27
2023-11-30T18:42:53.577Z,0.29
2023-11-30T18:45:21.711Z,0.31
2023-11-30T18:47:49.677Z,0.32
2023-11-30T18:50:17.775Z,0.32
2023-11-30T18:52:45.571Z,0.32
2023-11-30T18:55:13.482Z,0.30
2023-11-30T18:57:41.389Z,0.31
2023-11-30T19:00:09.645Z,0.29
2023-11-30T19:02:37.459Z,0.30
2023-11-30T19:05:08.715Z,0.31
2023-11-30T19:07:37.188Z,0.33
2023-11-30T19:10:05.716Z,0.37
2023-11-30T19:12:33.674Z,0.39
2023-11-30T19:15:02.172Z,0.40
2023-11-30T19:17:30.102Z,0.46
2023-11-30T19:19:57.933Z,0.55
2023-11-30T19:22:26.862Z,0.61
2023-11-30T19:24:55.037Z,0.66
2023-11-30T19:27:23.449Z,0.63
2023-11-30T19:29:52.569Z,0.65
2023-11-30T19:32:20.776Z,0.64
2023-11-30T19:34:48.752Z,0.62
2023-11-30T19:37:16.606Z,0.61
2023-11-30T19:39:44.476Z,0.59
2023-11-30T19:42:12.349Z,0.55
2023-11-30T19:44:40.642Z,0.52
2023-11-30T19:47:09.217Z,0.55
2023-11-30T19:49:37.043Z,0.48
2023-11-30T19:52:05.113Z,0.46
2023-11-30T19:54:32.969Z,0.41
2023-11-30T19:57:00.769Z,0.35
2023-11-30T19:59:28.603Z,0.34
2023-11-30T20:01:58.609Z,0.34
2023-11-30T20:04:26.585Z,0.32
2023-11-30T20:06:54.429Z,0.30
2023-11-30T20:09:24.226Z,0.30
2023-11-30T20:11:52.081Z,0.31
2023-11-30T20:14:19.930Z,0.33
2023-11-30T20:16:47.915Z,0.35
2023-11-30T20:19:16.266Z,0.37
2023-11-30T20:21:44.288Z,0.38
2023-11-30T20:24:12.135Z,0.34
2023-11-30T20:26:41.933Z,0.31
2023-11-30T20:29:09.799Z,0.29
2023-11-30T20:31:37.817Z,0.29
2023-11-30T20:34:05.710Z,0.30
2023-11-30T20:36:33.912Z,0.32
2023-11-30T20:39:02.105Z,0.31
2023-11-30T20:41:29.839Z,0.32
2023-11-30T20:43:57.834Z,0.35
2023-11-30T20:46:25.684Z,0.40
2023-11-30T20:48:55.322Z,0.43
2023-11-30T20:51:23.178Z,0.42
2023-11-30T20:53:51.015Z,0.41
2023-11-30T20:56:19.063Z,0.40
2023-11-30T20:58:49.458Z,0.37
2023-11-30T21:01:18.664Z,0.36
2023-11-30T21:03:46.874Z,0.30
2023-11-30T21:06:14.746Z,0.28
2023-11-30T21:08:42.634Z,0.22
2023-11-30T21:11:11.605Z,0.17
2023-11-30T21:13:39.423Z,0.09
2023-11-30T21:16:07.819Z,-0.01
2023-11-30T21:18:35.741Z,-0.04
2023-11-30T21:21:03.757Z,-0.18
2023-11-30T21:23:31.532Z,-0.30
2023-11-30T21:25:59.211Z,-0.38
2023-11-30T21:28:26.922Z,-0.38
2023-11-30T21:30:54.754Z,-0.35
2023-11-30T21:33:22.502Z,-0.32
2023-11-30T21:35:50.434Z,-0.29
2023-11-30T21:38:18.145Z,-0.31
2023-11-30T21:40:46.543Z,-0.35
2023-11-30T21:43:14.274Z,-0.38
2023-11-30T21:45:42.077Z,-0.44
2023-11-30T21:48:10.362Z,-0.47
2023-11-30T21:50:38.230Z,-0.49
2023-11-30T21:53:06.106Z,-0.50
2023-11-30T21:55:33.881Z,-0.54
2023-11-30T21:58:01.753Z,-0.57
2023-11-30T22:00:29.702Z,-0.58
2023-11-30T22:02:58.010Z,-0.60
2023-11-30T22:05:30.994Z,-0.62
2023-11-30T22:08:04.473Z,-0.68
2023-11-30T22:10:32.254Z,-0.70
2023-11-30T22:13:00.101Z,-0.76
2023-11-30T22:15:27.969Z,-0.84
2023-11-30T22:17:57.660Z,-0.87
2023-11-30T22:20:25.592Z,-0.90
2023-11-30T22:22:53.401Z,-0.92
2023-11-30T22:25:21.950Z,-0.94
2023-11-30T22:27:49.769Z,-0.97
2023-11-30T22:30:17.592Z,-1.01
2023-11-30T22:32:45.469Z,-1.05
2023-11-30T22:35:13.439Z,-1.09
2023-11-30T22:37:41.235Z,-1.16
2023-11-30T22:40:09.581Z,-1.24
2023-11-30T22:42:37.728Z,-1.32
2023-11-30T22:45:06.790Z,-1.39
2023-11-30T22:47:36.616Z,-1.45
2023-11-30T22:50:05.088Z,-1.51
2023-11-30T22:52:32.987Z,-1.60
2023-11-30T22:55:01.593Z,-1.71
2023-11-30T22:57:29.592Z,-1.83
2023-11-30T22:59:57.418Z,-1.93
2023-11-30T23:02:28.153Z,-2.06
2023-11-30T23:04:58.718Z,-2.09
2023-11-30T23:07:26.699Z,-2.12
2023-11-30T23:09:54.442Z,-2.11
2023-11-30T23:12:22.314Z,-2.12
2023-11-30T23:14:50.016Z,-2.10
2023-11-30T23:17:19.561Z,-2.08
2023-11-30T23:19:47.842Z,-2.08
2023-11-30T23:22:15.862Z,-2.07
2023-11-30T23:24:43.885Z,-2.08
2023-11-30T23:27:11.645Z,-2.06
2023-11-30T23:29:41.298Z,-2.02
2023-11-30T23:32:09.072Z,-2.06
2023-11-30T23:34:36.768Z,-2.09
2023-11-30T23:37:04.601Z,-2.10
2023-11-30T23:39:32.510Z,-2.06
2023-11-30T23:42:00.289Z,-2.08
2023-11-30T23:44:27.986Z,-2.09
2023-11-30T23:46:55.771Z,-2.11
2023-11-30T23:49:23.531Z,-2.12
2023-11-30T23:51:51.333Z,-2.10
2023-11-30T23:54:19.151Z,-2.09
2023-11-30T23:56:48.092Z,-2.05
2023-11-30T23:59:15.931Z,-1.99
